Time;durP1;ratioP1;P1;durP2;ratioP2;P2;SDS_P1;SDS_P2;PMS_P1;PMS_P2;Temp;Humidity;BMP_temperature;BMP_pressure;BME280_temperature;BME280_humidity;BME280_pressure;Samples;Min_cycle;Max_cycle;Signal;HPM_P1;HPM_P2
2022/03/14 00:02:19;;;;;;;1.23;0.60;;;12.10;84.50;;;;;;5043318;28;20047;-83
2022/03/14 00:04:45;;;;;;;1.75;0.50;;;12.10;84.50;;;;;;5063670;27;20044;-83
2022/03/14 00:07:12;;;;;;;0.90;0.50;;;12.10;84.50;;;;;;5061467;28;20467;-84
2022/03/14 00:09:39;;;;;;;1.80;0.70;;;12.10;84.60;;;;;;5065808;27;20032;-84
2022/03/14 00:12:07;;;;;;;1.17;0.60;;;12.10;84.80;;;;;;5032812;28;20519;-84
2022/03/14 00:14:33;;;;;;;0.82;0.40;;;12.10;84.90;;;;;;5066911;27;20036;-83
2022/03/14 00:17:02;;;;;;;1.40;0.50;;;12.00;85.00;;;;;;5037164;27;21066;-83
2022/03/14 00:19:31;;;;;;;1.17;0.52;;;12.10;85.30;;;;;;5062485;28;20027;-83
2022/03/14 00:21:58;;;;;;;1.25;0.60;;;12.10;85.20;;;;;;5081020;27;21855;-84
2022/03/14 00:24:25;;;;;;;1.40;0.52;;;12.10;85.50;;;;;;5067137;27;20038;-83
2022/03/14 00:26:54;;;;;;;1.63;0.57;;;12.00;85.50;;;;;;5081188;28;20042;-84
2022/03/14 00:29:23;;;;;;;1.50;0.40;;;12.00;85.70;;;;;;5064307;27;20032;-86
2022/03/14 00:31:50;;;;;;;0.93;0.50;;;12.00;85.70;;;;;;5033448;27;20046;-86
2022/03/14 00:34:34;;;;;;;1.45;0.40;;;12.00;86.00;;;;;;5065778;27;20478;-86
2022/03/14 00:37:25;;;;;;;1.10;0.40;;;12.00;85.90;;;;;;5099666;27;20044;-86
2022/03/14 00:40:00;;;;;;;0.82;0.47;;;12.00;85.90;;;;;;5050456;27;20039;-86
2022/03/14 00:42:28;;;;;;;0.80;0.40;;;11.90;85.90;;;;;;5076046;27;20050;-86
2022/03/14 00:44:55;;;;;;;1.40;0.70;;;11.90;86.10;;;;;;5045936;28;20040;-86
2022/03/14 00:47:22;;;;;;;0.57;0.38;;;11.90;86.10;;;;;;5067675;28;20016;-86
2022/03/14 00:49:55;;;;;;;0.55;0.30;;;11.90;86.20;;;;;;5048446;27;20055;-86
2022/03/14 00:52:25;;;;;;;0.77;0.38;;;11.90;86.20;;;;;;5067910;28;20035;-86
2022/03/14 00:55:07;;;;;;;1.02;0.40;;;11.90;86.30;;;;;;5077343;28;20032;-86
2022/03/14 00:57:35;;;;;;;0.60;0.35;;;11.90;86.30;;;;;;5067598;27;20028;-86
2022/03/14 01:00:12;;;;;;;0.80;0.40;;;11.90;86.40;;;;;;5047181;27;20046;-88
2022/03/14 01:02:48;;;;;;;0.80;0.40;;;11.90;86.50;;;;;;5102445;27;20039;-87
2022/03/14 01:05:50;;;;;;;0.85;0.40;;;11.80;86.50;;;;;;5093803;27;20044;-87
2022/03/14 01:08:21;;;;;;;0.70;0.40;;;11.80;86.80;;;;;;5076769;28;20035;-87
2022/03/14 01:10:51;;;;;;;0.93;0.45;;;11.80;86.70;;;;;;5066903;27;20062;-87
2022/03/14 01:13:22;;;;;;;0.73;0.50;;;11.80;87.00;;;;;;5064147;27;20051;-87
2022/03/14 01:15:54;;;;;;;1.05;0.50;;;11.80;87.20;;;;;;5061006;27;20036;-87
2022/03/14 01:18:21;;;;;;;0.88;0.50;;;11.80;87.30;;;;;;5083293;27;20039;-87
2022/03/14 01:20:50;;;;;;;1.20;0.50;;;11.80;87.70;;;;;;5062352;27;20040;-85
2022/03/14 01:23:23;;;;;;;0.90;0.40;;;11.80;87.80;;;;;;5049530;27;20027;-85
2022/03/14 01:26:04;;;;;;;1.17;0.50;;;11.70;87.70;;;;;;5080415;28;20401;-84
2022/03/14 01:28:30;;;;;;;0.98;0.50;;;11.70;88.00;;;;;;5097906;27;20011;-84
2022/03/14 01:30:58;;;;;;;1.35;0.90;;;11.80;88.20;;;;;;5080954;27;20028;-85
2022/03/14 01:33:24;;;;;;;0.82;0.60;;;11.70;88.30;;;;;;5050111;27;20070;-84
2022/03/14 01:35:51;;;;;;;1.00;0.50;;;11.70;88.40;;;;;;5063968;28;20027;-82
2022/03/14 01:38:17;;;;;;;0.85;0.40;;;11.70;88.50;;;;;;5078540;28;20023;-86
2022/03/14 01:40:45;;;;;;;1.30;0.50;;;11.70;88.60;;;;;;5082597;27;20044;-84
2022/03/14 01:43:11;;;;;;;0.85;0.47;;;11.70;88.60;;;;;;5044852;28;20031;-85
2022/03/14 01:45:38;;;;;;;1.30;0.75;;;11.70;88.80;;;;;;5031007;28;20019;-84
2022/03/14 01:48:06;;;;;;;1.20;0.63;;;11.70;89.20;;;;;;5082898;28;20394;-83
2022/03/14 01:50:34;;;;;;;1.50;0.50;;;11.60;89.30;;;;;;5078296;27;20028;-83
2022/03/14 01:53:00;;;;;;;1.27;0.47;;;11.60;89.30;;;;;;5064627;27;20063;-83
2022/03/14 01:55:27;;;;;;;2.35;0.60;;;11.60;89.30;;;;;;5100783;27;20032;-84
2022/03/14 01:57:55;;;;;;;1.30;0.60;;;11.60;89.40;;;;;;5083024;27;20019;-84
2022/03/14 02:00:22;;;;;;;1.10;0.50;;;11.70;89.60;;;;;;5039075;28;20043;-84
2022/03/14 02:02:48;;;;;;;1.30;0.60;;;11.60;89.70;;;;;;5099835;27;20035;-84
2022/03/14 02:05:16;;;;;;;1.23;0.52;;;11.60;89.80;;;;;;5047735;28;20044;-84
2022/03/14 02:07:43;;;;;;;1.42;0.60;;;11.60;89.80;;;;;;5063875;28;20028;-83
2022/03/14 02:10:09;;;;;;;1.38;0.60;;;11.60;89.70;;;;;;5056073;28;20040;-84
2022/03/14 02:12:40;;;;;;;1.58;0.73;;;11.60;89.90;;;;;;5065050;28;20028;-84
2022/03/14 02:15:07;;;;;;;0.90;0.57;;;11.50;90.10;;;;;;5048320;28;20028;-84
2022/03/14 02:17:34;;;;;;;1.42;0.60;;;11.50;90.10;;;;;;5081423;28;20031;-84
2022/03/14 02:20:00;;;;;;;2.17;0.70;;;11.50;90.20;;;;;;5042809;28;20380;-83
2022/03/14 02:22:27;;;;;;;1.00;0.50;;;11.50;90.40;;;;;;5059895;28;20059;-84
2022/03/14 02:24:53;;;;;;;1.67;0.90;;;11.50;90.40;;;;;;5078208;28;20019;-84
2022/03/14 02:27:21;;;;;;;1.23;0.63;;;11.50;90.40;;;;;;5077764;28;20055;-76
2022/03/14 02:29:47;;;;;;;1.33;0.65;;;11.50;90.50;;;;;;5075981;28;20020;-76
2022/03/14 02:32:15;;;;;;;1.63;0.90;;;11.50;90.60;;;;;;5073443;28;20032;-75
2022/03/14 02:34:41;;;;;;;1.20;0.68;;;11.50;90.60;;;;;;5076814;28;20032;-75
2022/03/14 02:37:09;;;;;;;1.83;0.98;;;11.40;90.70;;;;;;5073659;28;20024;-75
2022/03/14 02:39:37;;;;;;;2.00;1.25;;;11.40;90.90;;;;;;5071762;28;20059;-76
2022/03/14 02:42:06;;;;;;;1.92;1.08;;;11.40;91.10;;;;;;5074944;28;20032;-75
2022/03/14 02:44:34;;;;;;;1.92;0.88;;;11.40;91.30;;;;;;5076098;28;20027;-75
2022/03/14 02:47:04;;;;;;;1.58;0.80;;;11.40;91.20;;;;;;5076291;28;20027;-75
2022/03/14 02:49:31;;;;;;;1.48;0.80;;;11.40;91.20;;;;;;5073242;28;20028;-76
2022/03/14 02:51:58;;;;;;;2.38;0.90;;;11.40;91.20;;;;;;5079075;28;20043;-76
2022/03/14 02:54:25;;;;;;;1.58;0.77;;;11.40;91.20;;;;;;5077274;28;20017;-76
2022/03/14 02:56:52;;;;;;;1.65;0.60;;;11.40;91.30;;;;;;5074784;28;20036;-76
2022/03/14 02:59:20;;;;;;;1.73;1.13;;;11.40;91.30;;;;;;5056102;28;20029;-76
2022/03/14 03:01:46;;;;;;;1.63;0.73;;;11.40;91.60;;;;;;5074608;28;20039;-76
2022/03/14 03:04:13;;;;;;;1.90;1.00;;;11.40;91.60;;;;;;5081528;28;20020;-76
2022/03/14 03:06:39;;;;;;;2.47;1.00;;;11.30;91.70;;;;;;5060733;28;20059;-76
2022/03/14 03:09:06;;;;;;;2.83;0.90;;;11.30;91.80;;;;;;5046057;28;20040;-76
2022/03/14 03:11:33;;;;;;;1.50;0.90;;;11.30;91.90;;;;;;5055054;28;20025;-76
2022/03/14 03:14:00;;;;;;;1.77;1.10;;;11.30;92.10;;;;;;5058461;28;20017;-76
2022/03/14 03:16:27;;;;;;;1.80;1.00;;;11.30;92.30;;;;;;5058630;28;20032;-76
2022/03/14 03:18:54;;;;;;;2.10;0.95;;;11.20;92.40;;;;;;5060259;28;20392;-76
2022/03/14 03:21:21;;;;;;;2.08;1.15;;;11.20;92.60;;;;;;5039964;28;20415;-76
2022/03/14 03:23:48;;;;;;;2.72;1.05;;;11.10;92.80;;;;;;5041919;28;20017;-76
2022/03/14 03:26:16;;;;;;;1.92;1.10;;;11.10;93.00;;;;;;5059595;28;20020;-76
2022/03/14 03:28:42;;;;;;;1.77;0.80;;;11.00;93.40;;;;;;5062029;28;20008;-76
2022/03/14 03:31:11;;;;;;;2.35;1.10;;;11.00;93.50;;;;;;5055231;28;20025;-76
2022/03/14 03:33:38;;;;;;;1.65;0.90;;;11.00;93.70;;;;;;5058624;28;20024;-76
2022/03/14 03:36:07;;;;;;;3.10;1.35;;;11.00;93.90;;;;;;5043487;28;20025;-76
2022/03/14 03:38:34;;;;;;;1.85;1.20;;;11.00;94.10;;;;;;5061011;28;20484;-76
2022/03/14 03:41:01;;;;;;;1.98;0.98;;;10.90;94.10;;;;;;5061652;28;20440;-76
2022/03/14 03:43:28;;;;;;;2.67;1.00;;;10.90;94.30;;;;;;5063146;28;20371;-76
2022/03/14 03:45:54;;;;;;;1.90;1.00;;;10.90;94.50;;;;;;5048745;28;20024;-76
2022/03/14 03:48:21;;;;;;;1.90;1.27;;;10.90;94.50;;;;;;5062743;28;20024;-76
2022/03/14 03:50:47;;;;;;;2.22;1.42;;;10.90;94.70;;;;;;5058432;28;20494;-76
2022/03/14 03:53:14;;;;;;;1.92;1.20;;;10.90;94.90;;;;;;5062735;28;20468;-76
2022/03/14 03:55:41;;;;;;;2.20;1.50;;;10.90;95.00;;;;;;5067086;28;20354;-76
2022/03/14 03:58:08;;;;;;;2.28;1.48;;;10.90;95.30;;;;;;5061547;28;20028;-76
2022/03/14 04:00:34;;;;;;;1.85;1.10;;;10.90;95.50;;;;;;5059665;28;20023;-76
2022/03/14 04:03:00;;;;;;;2.33;1.00;;;10.90;95.60;;;;;;5064445;28;20044;-75
2022/03/14 04:05:28;;;;;;;1.70;0.90;;;10.90;95.80;;;;;;5081118;27;20046;-75
2022/03/14 04:07:56;;;;;;;2.00;1.20;;;10.80;95.80;;;;;;5085096;28;20024;-75
2022/03/14 04:10:24;;;;;;;2.25;0.98;;;10.80;96.10;;;;;;5077035;28;20386;-75
2022/03/14 04:12:53;;;;;;;1.73;1.25;;;10.80;96.20;;;;;;5050295;27;20494;-75
2022/03/14 04:15:23;;;;;;;1.75;0.93;;;10.80;96.40;;;;;;5086030;27;20505;-75
2022/03/14 04:17:50;;;;;;;2.10;1.48;;;10.80;96.60;;;;;;5102587;27;20031;-76
2022/03/14 04:20:16;;;;;;;2.17;1.67;;;10.80;96.90;;;;;;5099768;27;20834;-76
2022/03/14 04:22:43;;;;;;;2.92;2.15;;;10.80;97.30;;;;;;5083820;28;20035;-76
2022/03/14 04:25:12;;;;;;;2.60;1.85;;;10.70;97.50;;;;;;5068252;28;20016;-76
2022/03/14 04:27:39;;;;;;;2.95;2.47;;;10.70;97.90;;;;;;5082310;27;20124;-76
2022/03/14 04:30:06;;;;;;;3.22;2.10;;;10.70;98.20;;;;;;5098590;27;20028;-76
2022/03/14 04:32:32;;;;;;;2.83;1.83;;;10.70;98.30;;;;;;5065826;27;20031;-76
2022/03/14 04:34:59;;;;;;;2.40;1.58;;;10.70;98.40;;;;;;5084712;27;20023;-76
2022/03/14 04:37:26;;;;;;;1.80;1.20;;;10.70;98.70;;;;;;5086467;27;20055;-76
2022/03/14 04:39:52;;;;;;;2.42;1.52;;;10.70;98.80;;;;;;5098395;27;20880;-75
2022/03/14 04:42:22;;;;;;;1.95;1.17;;;10.60;99.30;;;;;;5083328;27;20050;-76
2022/03/14 04:44:52;;;;;;;2.05;1.33;;;10.60;99.20;;;;;;5085514;28;20370;-76
2022/03/14 04:47:18;;;;;;;2.50;1.55;;;10.70;99.60;;;;;;5069913;27;20035;-76
2022/03/14 04:49:45;;;;;;;1.80;1.08;;;10.60;99.80;;;;;;5099451;27;20034;-76
2022/03/14 04:52:11;;;;;;;3.67;1.88;;;10.60;99.90;;;;;;5084875;27;20028;-76
2022/03/14 04:54:39;;;;;;;2.30;1.30;;;10.60;99.90;;;;;;5084171;27;20019;-76
2022/03/14 04:57:06;;;;;;;2.25;1.30;;;10.60;99.90;;;;;;5091746;27;20031;-76
2022/03/14 04:59:32;;;;;;;2.38;1.45;;;10.60;99.90;;;;;;5083461;27;20036;-75
2022/03/14 05:01:58;;;;;;;2.33;1.40;;;10.60;99.90;;;;;;5089417;27;20032;-75
2022/03/14 05:04:25;;;;;;;3.15;1.60;;;10.60;99.90;;;;;;5101589;28;20031;-75
2022/03/14 05:06:51;;;;;;;2.17;1.30;;;10.60;99.90;;;;;;5085927;28;20047;-75
2022/03/14 05:09:17;;;;;;;2.50;1.83;;;10.60;99.90;;;;;;5087802;27;20913;-75
2022/03/14 05:11:44;;;;;;;2.78;2.08;;;10.60;99.90;;;;;;5098516;27;20034;-75
2022/03/14 05:14:10;;;;;;;3.50;2.85;;;10.60;99.90;;;;;;5101306;27;20031;-75
2022/03/14 05:16:37;;;;;;;2.88;2.55;;;10.60;99.90;;;;;;5086561;27;20024;-75
2022/03/14 05:19:03;;;;;;;4.38;2.95;;;10.50;99.90;;;;;;5101821;27;20023;-75
2022/03/14 05:21:33;;;;;;;3.10;2.78;;;10.40;99.90;;;;;;5046574;27;20031;-75
2022/03/14 05:24:00;;;;;;;4.07;3.05;;;10.30;99.90;;;;;;5080032;27;20030;-75
2022/03/14 05:26:26;;;;;;;4.05;3.00;;;10.30;99.90;;;;;;5068881;27;20479;-74
2022/03/14 05:28:52;;;;;;;5.05;4.45;;;10.20;99.90;;;;;;5064205;27;20051;-75
2022/03/14 05:31:21;;;;;;;3.30;2.72;;;10.10;99.90;;;;;;5066347;28;20027;-75
2022/03/14 05:33:47;;;;;;;4.90;3.22;;;10.10;99.90;;;;;;5083061;28;20019;-75
2022/03/14 05:36:14;;;;;;;4.07;3.53;;;10.00;99.90;;;;;;5070186;27;21166;-75
2022/03/14 05:38:40;;;;;;;4.78;3.70;;;9.90;99.90;;;;;;5100682;27;20032;-75
2022/03/14 05:41:09;;;;;;;3.80;3.50;;;9.90;99.90;;;;;;5079935;28;20012;-75
2022/03/14 05:43:38;;;;;;;4.75;4.22;;;9.90;99.90;;;;;;5067417;27;20039;-75
2022/03/14 05:46:06;;;;;;;5.18;4.20;;;9.80;99.90;;;;;;5100417;27;20355;-75
2022/03/14 05:48:35;;;;;;;4.13;3.58;;;9.80;99.90;;;;;;5099351;27;20031;-75
2022/03/14 05:51:04;;;;;;;4.82;4.32;;;9.80;99.90;;;;;;5061658;28;20379;-75
2022/03/14 05:53:31;;;;;;;5.43;4.80;;;9.80;99.90;;;;;;5099541;27;20347;-75
2022/03/14 05:55:58;;;;;;;6.05;4.95;;;9.80;99.90;;;;;;5098573;27;20042;-75
2022/03/14 05:58:24;;;;;;;7.15;5.75;;;9.80;99.90;;;;;;5074236;27;20498;-74
2022/03/14 06:00:52;;;;;;;7.80;6.63;;;9.80;99.90;;;;;;5056617;27;20398;-74
2022/03/14 06:03:22;;;;;;;8.82;7.57;;;9.80;99.90;;;;;;5099124;27;20482;-74
2022/03/14 06:05:49;;;;;;;8.10;7.30;;;9.80;99.90;;;;;;5077625;28;20032;-75
2022/03/14 06:08:19;;;;;;;7.85;7.05;;;9.80;99.90;;;;;;5060260;28;20040;-73
2022/03/14 06:10:46;;;;;;;7.38;6.30;;;9.80;99.90;;;;;;5076397;28;20032;-74
2022/03/14 06:13:13;;;;;;;8.27;7.47;;;9.80;99.90;;;;;;5077353;28;20541;-74
2022/03/14 06:15:42;;;;;;;8.68;7.78;;;9.80;99.90;;;;;;5081181;28;20021;-73
2022/03/14 06:18:08;;;;;;;9.20;8.30;;;9.80;99.90;;;;;;5079129;28;20395;-74
2022/03/14 06:20:35;;;;;;;11.50;10.30;;;9.80;99.90;;;;;;5078231;28;20098;-74
2022/03/14 06:23:02;;;;;;;9.27;8.27;;;9.80;99.90;;;;;;5079217;28;20478;-73
2022/03/14 06:25:28;;;;;;;10.18;8.15;;;9.70;99.90;;;;;;5081889;28;20024;-73
2022/03/14 06:27:55;;;;;;;10.18;8.95;;;9.70;99.90;;;;;;5096106;27;20039;-74
2022/03/14 06:30:22;;;;;;;9.65;7.85;;;9.70;99.90;;;;;;5076412;28;20021;-73
2022/03/14 06:32:49;;;;;;;11.10;8.80;;;9.70;99.90;;;;;;5080421;28;20021;-75
2022/03/14 06:35:17;;;;;;;10.70;9.48;;;9.70;99.90;;;;;;5071326;28;20475;-74
2022/03/14 06:37:44;;;;;;;9.48;8.52;;;9.70;99.90;;;;;;5076980;28;20506;-73
2022/03/14 06:40:11;;;;;;;10.30;8.68;;;9.70;99.90;;;;;;5072224;28;20024;-73
2022/03/14 06:42:39;;;;;;;11.60;9.70;;;9.70;99.90;;;;;;5062951;28;20039;-73
2022/03/14 06:45:06;;;;;;;12.93;10.45;;;9.70;99.90;;;;;;5078814;28;20019;-73
2022/03/14 06:47:32;;;;;;;10.63;9.23;;;9.70;99.90;;;;;;5077987;28;20039;-74
2022/03/14 06:49:59;;;;;;;10.65;9.20;;;9.70;99.90;;;;;;5077408;28;20020;-74
2022/03/14 06:52:25;;;;;;;9.35;8.10;;;9.70;99.90;;;;;;5059497;28;20051;-73
2022/03/14 06:54:51;;;;;;;11.48;8.68;;;9.70;99.90;;;;;;5078015;28;20459;-74
2022/03/14 06:57:18;;;;;;;11.68;8.23;;;9.80;99.90;;;;;;5075876;28;20020;-74
2022/03/14 06:59:45;;;;;;;13.07;8.40;;;9.80;99.90;;;;;;5077384;28;20032;-74
2022/03/14 07:02:12;;;;;;;10.23;8.30;;;9.80;99.90;;;;;;5076301;28;20036;-74
2022/03/14 07:04:38;;;;;;;13.68;9.57;;;9.80;99.90;;;;;;5085470;28;20039;-74
2022/03/14 07:07:05;;;;;;;12.10;9.68;;;9.80;99.90;;;;;;5080937;28;20039;-74
2022/03/14 07:09:32;;;;;;;11.80;10.23;;;9.80;99.90;;;;;;5061145;27;20032;-74
2022/03/14 07:11:58;;;;;;;14.05;10.52;;;9.80;99.90;;;;;;5095386;27;20459;-74
2022/03/14 07:14:25;;;;;;;12.20;10.55;;;9.80;99.90;;;;;;5080364;28;20031;-73
2022/03/14 07:16:51;;;;;;;13.77;11.05;;;9.80;99.90;;;;;;5097859;27;20015;-73
2022/03/14 07:19:19;;;;;;;15.00;12.48;;;9.80;99.90;;;;;;5096748;28;20027;-73
2022/03/14 07:21:45;;;;;;;14.07;11.15;;;9.90;99.90;;;;;;5100504;28;20020;-73
2022/03/14 07:24:12;;;;;;;19.23;14.48;;;9.80;99.90;;;;;;5064885;28;20020;-74
2022/03/14 07:26:38;;;;;;;16.35;13.77;;;9.90;99.90;;;;;;5067778;28;20468;-73
2022/03/14 07:29:07;;;;;;;14.18;11.10;;;9.90;99.90;;;;;;5079900;28;20023;-72
2022/03/14 07:31:35;;;;;;;16.45;11.82;;;9.90;99.90;;;;;;5094635;28;20019;-73
2022/03/14 07:34:02;;;;;;;17.27;12.60;;;9.90;99.90;;;;;;5097904;28;20029;-74
2022/03/14 07:36:29;;;;;;;21.58;13.40;;;9.90;99.90;;;;;;5099148;28;20467;-74
2022/03/14 07:38:56;;;;;;;15.60;12.73;;;9.90;99.90;;;;;;5080825;28;20023;-74
2022/03/14 07:41:23;;;;;;;14.73;12.25;;;9.90;99.90;;;;;;5077459;28;20029;-73
2022/03/14 07:43:49;;;;;;;13.80;12.32;;;10.00;99.90;;;;;;5080383;28;20038;-73
2022/03/14 07:46:16;;;;;;;15.88;12.20;;;10.00;99.90;;;;;;5057256;28;20031;-73
2022/03/14 07:48:42;;;;;;;13.90;11.50;;;10.10;99.90;;;;;;5058336;28;20391;-74
2022/03/14 07:51:09;;;;;;;15.43;12.35;;;10.10;99.90;;;;;;5075588;28;20505;-73
2022/03/14 07:53:35;;;;;;;13.40;11.65;;;10.20;99.90;;;;;;5074229;28;20356;-74
2022/03/14 07:56:04;;;;;;;16.38;13.10;;;10.20;99.90;;;;;;5095020;28;20038;-75
2022/03/14 07:58:30;;;;;;;18.33;12.55;;;10.30;99.90;;;;;;5059243;28;20516;-75
2022/03/14 08:00:56;;;;;;;19.38;16.15;;;10.30;99.90;;;;;;5092114;28;20030;-74
2022/03/14 08:03:24;;;;;;;17.83;14.15;;;10.30;99.90;;;;;;5082271;28;20031;-75
2022/03/14 08:05:55;;;;;;;15.18;12.82;;;10.40;99.90;;;;;;5098564;28;20039;-74
2022/03/14 08:08:25;;;;;;;17.67;13.32;;;10.40;99.90;;;;;;5097279;28;20472;-74
2022/03/14 08:10:54;;;;;;;16.70;13.35;;;10.50;99.90;;;;;;5077677;28;20015;-74
2022/03/14 08:13:20;;;;;;;18.77;15.13;;;10.50;99.90;;;;;;5096265;28;21106;-74
2022/03/14 08:15:47;;;;;;;22.38;16.20;;;10.60;99.90;;;;;;5079513;28;20031;-74
2022/03/14 08:18:14;;;;;;;25.60;17.25;;;10.60;99.90;;;;;;5080751;28;20023;-74
2022/03/14 08:20:40;;;;;;;18.10;14.85;;;10.60;99.90;;;;;;5080455;28;20020;-74
2022/03/14 08:23:08;;;;;;;22.33;17.13;;;10.60;99.90;;;;;;5059365;28;20047;-74
2022/03/14 08:25:34;;;;;;;20.48;18.10;;;10.60;99.90;;;;;;5101215;27;20023;-74
2022/03/14 08:28:02;;;;;;;19.92;16.10;;;10.70;99.90;;;;;;5084273;28;20055;-73
2022/03/14 08:30:29;;;;;;;18.73;16.73;;;10.70;99.90;;;;;;5065157;27;20025;-73
2022/03/14 08:32:57;;;;;;;20.23;17.55;;;10.80;99.90;;;;;;5088871;27;20039;-73
2022/03/14 08:35:24;;;;;;;22.38;17.40;;;10.80;99.90;;;;;;5094613;27;20034;-73
2022/03/14 08:37:52;;;;;;;25.08;20.90;;;10.90;99.90;;;;;;5072309;27;20042;-74
2022/03/14 08:40:21;;;;;;;21.83;18.70;;;10.90;99.90;;;;;;5104807;27;20494;-74
2022/03/14 08:42:48;;;;;;;22.08;17.80;;;11.00;99.90;;;;;;5112066;27;20023;-73
2022/03/14 08:45:15;;;;;;;22.95;19.60;;;11.00;99.90;;;;;;5099379;28;20035;-73
2022/03/14 08:47:43;;;;;;;21.73;17.67;;;11.10;99.90;;;;;;5092201;28;20019;-73
2022/03/14 08:50:12;;;;;;;25.58;18.33;;;11.10;99.90;;;;;;5103421;27;20827;-73
2022/03/14 08:52:38;;;;;;;22.58;18.05;;;11.10;99.90;;;;;;5052164;27;20348;-73
2022/03/14 08:55:06;;;;;;;19.23;16.67;;;11.20;99.90;;;;;;5083927;27;20032;-73
2022/03/14 08:57:32;;;;;;;23.35;16.95;;;11.30;99.90;;;;;;5081818;27;20026;-73
2022/03/14 08:59:59;;;;;;;19.23;17.13;;;11.30;99.90;;;;;;5081333;28;20035;-73
2022/03/14 09:02:26;;;;;;;21.25;18.70;;;11.30;99.90;;;;;;5096664;27;20379;-73
2022/03/14 09:04:52;;;;;;;20.58;18.38;;;11.30;99.90;;;;;;5079522;28;20030;-73
2022/03/14 09:07:27;;;;;;;23.05;17.30;;;11.30;99.90;;;;;;5097441;27;20024;-73
2022/03/14 09:09:54;;;;;;;21.58;16.65;;;11.20;99.90;;;;;;5082007;28;20016;-73
2022/03/14 09:12:20;;;;;;;20.00;17.40;;;11.20;99.90;;;;;;5099868;27;20593;-74
2022/03/14 09:14:48;;;;;;;22.55;17.98;;;11.30;99.90;;;;;;5082670;28;21049;-74
2022/03/14 09:17:15;;;;;;;20.95;17.55;;;11.30;99.90;;;;;;5101250;27;20028;-74
2022/03/14 09:19:41;;;;;;;21.92;18.23;;;11.40;99.90;;;;;;5083028;27;20028;-74
2022/03/14 09:22:11;;;;;;;21.77;18.40;;;11.30;99.90;;;;;;5100240;27;20024;-74
2022/03/14 09:24:38;;;;;;;22.48;17.63;;;11.30;99.90;;;;;;5064805;27;20032;-74
2022/03/14 09:27:06;;;;;;;24.35;18.60;;;11.30;99.90;;;;;;5081385;28;20024;-74
2022/03/14 09:29:32;;;;;;;21.67;18.50;;;11.30;99.90;;;;;;5097237;27;20037;-73
2022/03/14 09:31:59;;;;;;;25.27;18.52;;;11.30;99.90;;;;;;5064709;28;20023;-74
2022/03/14 09:34:25;;;;;;;22.50;19.02;;;11.30;99.90;;;;;;5084055;27;20035;-74
2022/03/14 09:36:53;;;;;;;24.08;18.40;;;11.30;99.90;;;;;;5062393;27;20385;-74
2022/03/14 09:39:19;;;;;;;23.90;18.83;;;11.30;99.90;;;;;;5099875;27;20414;-74
2022/03/14 09:41:50;;;;;;;23.50;18.75;;;11.40;99.90;;;;;;5095993;27;20048;-74
2022/03/14 09:44:19;;;;;;;26.02;19.98;;;11.40;99.90;;;;;;5080559;27;20149;-74
2022/03/14 09:46:48;;;;;;;28.08;21.10;;;11.40;99.90;;;;;;5045686;27;20020;-74
2022/03/14 09:49:16;;;;;;;21.88;17.45;;;11.40;99.90;;;;;;5097270;27;20013;-75
2022/03/14 09:51:43;;;;;;;27.75;19.88;;;11.40;99.90;;;;;;5100476;27;20470;-75
2022/03/14 09:54:10;;;;;;;25.95;20.27;;;11.40;99.90;;;;;;5100196;27;20038;-75
2022/03/14 09:56:41;;;;;;;27.83;21.23;;;11.50;99.90;;;;;;5098198;27;20950;-75
2022/03/14 09:59:12;;;;;;;27.15;21.15;;;11.50;99.90;;;;;;5098653;27;20378;-75
2022/03/14 10:01:38;;;;;;;24.90;20.98;;;11.60;99.90;;;;;;5069163;27;20024;-76
2022/03/14 10:04:05;;;;;;;26.80;22.90;;;11.60;99.90;;;;;;5098114;27;20036;-75
2022/03/14 10:06:32;;;;;;;24.70;20.13;;;11.60;99.90;;;;;;5096437;27;20051;-75
2022/03/14 10:08:58;;;;;;;24.25;20.20;;;11.60;99.90;;;;;;5061568;28;20020;-74
2022/03/14 10:11:25;;;;;;;27.45;21.15;;;11.70;99.90;;;;;;5076861;28;20031;-75
2022/03/14 10:13:51;;;;;;;24.55;20.55;;;11.80;99.90;;;;;;5078853;27;20043;-75
2022/03/14 10:16:18;;;;;;;25.98;21.20;;;11.90;99.90;;;;;;5097317;27;20032;-76
2022/03/14 10:19:13;;;;;;;27.67;20.33;;;12.10;99.90;;;;;;5068277;27;20023;-75
2022/03/14 10:21:44;;;;;;;23.98;19.80;;;12.30;99.90;;;;;;5062715;27;20027;-76
2022/03/14 10:24:12;;;;;;;27.48;22.10;;;12.30;99.90;;;;;;5083084;27;20031;-75
2022/03/14 10:26:44;;;;;;;32.03;21.88;;;12.50;99.90;;;;;;5081213;27;20023;-76
2022/03/14 10:29:12;;;;;;;28.00;21.55;;;12.70;99.90;;;;;;5078462;28;20363;-75
2022/03/14 10:31:41;;;;;;;26.13;21.10;;;12.80;99.90;;;;;;5095892;27;20371;-76
2022/03/14 10:34:10;;;;;;;26.98;21.20;;;12.90;99.90;;;;;;5077577;27;20454;-76
2022/03/14 10:36:38;;;;;;;31.98;23.98;;;13.00;99.90;;;;;;5060760;27;20039;-76
2022/03/14 10:39:16;;;;;;;24.63;21.05;;;13.10;99.90;;;;;;5082262;28;20486;-76
2022/03/14 10:42:03;;;;;;;27.77;21.02;;;13.10;99.90;;;;;;5077197;27;20031;-76
2022/03/14 10:44:31;;;;;;;23.17;20.55;;;13.20;99.90;;;;;;5051739;27;20023;-76
2022/03/14 10:46:59;;;;;;;25.52;19.67;;;13.20;99.90;;;;;;5098369;27;20020;-77
2022/03/14 10:49:33;;;;;;;26.58;19.30;;;13.30;99.90;;;;;;5067261;27;20024;-76
2022/03/14 10:52:03;;;;;;;24.48;18.13;;;13.30;99.90;;;;;;5092695;27;20016;-77
2022/03/14 10:54:34;;;;;;;21.20;17.00;;;13.40;99.90;;;;;;5097645;27;20868;-76
2022/03/14 10:57:03;;;;;;;19.33;15.93;;;13.30;99.90;;;;;;5078542;28;20020;-76
2022/03/14 10:59:33;;;;;;;22.45;16.75;;;13.40;99.90;;;;;;5081088;27;20039;-76
2022/03/14 11:02:01;;;;;;;19.65;15.63;;;13.40;99.90;;;;;;5095691;27;20510;-75
2022/03/14 11:04:44;;;;;;;20.63;17.00;;;13.30;99.90;;;;;;5079061;28;20068;-75
2022/03/14 11:07:11;;;;;;;19.95;15.32;;;13.10;99.90;;;;;;5077633;27;20035;-76
2022/03/14 11:09:57;;;;;;;25.75;16.52;;;13.10;99.90;;;;;;5093109;27;20023;-77
2022/03/14 11:12:26;;;;;;;21.92;17.13;;;13.50;99.90;;;;;;5061232;27;20044;-75
2022/03/14 11:14:55;;;;;;;23.13;17.50;;;13.80;99.90;;;;;;5078290;28;20054;-76
2022/03/14 11:17:33;;;;;;;22.38;16.10;;;14.10;99.90;;;;;;5095349;27;20023;-76
2022/03/14 11:20:01;;;;;;;20.73;15.82;;;14.40;99.90;;;;;;5076896;28;20019;-76
2022/03/14 11:22:29;;;;;;;20.02;16.08;;;14.40;99.90;;;;;;5060386;28;20028;-76
2022/03/14 11:24:57;;;;;;;15.43;13.82;;;14.50;99.90;;;;;;5078009;28;20268;-75
2022/03/14 11:27:29;;;;;;;18.23;15.65;;;14.40;99.90;;;;;;5096990;28;20023;-76
2022/03/14 11:30:03;;;;;;;18.25;13.82;;;14.30;99.90;;;;;;5094042;28;20476;-72
2022/03/14 11:32:29;;;;;;;16.35;12.98;;;14.10;99.90;;;;;;5062153;28;20458;-73
2022/03/14 11:34:56;;;;;;;15.57;12.55;;;13.90;99.90;;;;;;5078593;28;20019;-73
2022/03/14 11:37:24;;;;;;;19.83;14.45;;;13.90;99.90;;;;;;5096479;28;20027;-73
2022/03/14 11:39:51;;;;;;;14.75;12.65;;;13.90;99.90;;;;;;5075359;28;20012;-74
2022/03/14 11:42:18;;;;;;;16.40;13.15;;;14.10;99.90;;;;;;5097512;28;20016;-74
2022/03/14 11:44:47;;;;;;;18.20;11.40;;;14.30;99.90;;;;;;5075892;28;20024;-74
2022/03/14 11:47:14;;;;;;;13.35;9.20;;;14.70;99.90;;;;;;5096762;28;20036;-73
2022/03/14 11:49:42;;;;;;;21.40;12.43;;;15.20;99.90;;;;;;5078315;28;20347;-72
2022/03/14 11:52:19;;;;;;;15.77;11.57;;;15.40;99.90;;;;;;5098183;28;20028;-74
2022/03/14 11:55:00;;;;;;;16.88;11.40;;;15.50;99.90;;;;;;5078838;28;20374;-74
2022/03/14 11:57:39;;;;;;;21.05;12.82;;;15.50;99.90;;;;;;5062485;28;20039;-73
2022/03/14 12:00:21;;;;;;;16.08;10.43;;;15.30;99.90;;;;;;5097645;27;20031;-74
2022/03/14 12:02:49;;;;;;;13.37;10.20;;;15.20;99.90;;;;;;5100402;27;20024;-74
2022/03/14 12:05:31;;;;;;;14.27;10.90;;;15.50;99.90;;;;;;5070489;27;20032;-74
2022/03/14 12:08:06;;;;;;;13.02;10.18;;;16.00;99.90;;;;;;5101217;27;20086;-74
2022/03/14 12:10:34;;;;;;;15.43;9.15;;;16.10;99.90;;;;;;5100027;27;20015;-74
2022/03/14 12:13:02;;;;;;;13.57;8.48;;;16.30;99.90;;;;;;5099442;27;20031;-74
2022/03/14 12:15:44;;;;;;;12.45;7.75;;;16.90;99.90;;;;;;5073998;27;20035;-75
2022/03/14 12:18:26;;;;;;;13.05;7.22;;;17.70;99.90;;;;;;5081661;27;20600;-75
2022/03/14 12:21:02;;;;;;;13.43;6.38;;;18.60;99.90;;;;;;5099052;27;20031;-75
2022/03/14 12:23:33;;;;;;;12.40;6.72;;;19.20;98.60;;;;;;5086802;28;20039;-75
2022/03/14 12:26:24;;;;;;;11.68;5.88;;;20.10;96.60;;;;;;5086632;27;20020;-74
2022/03/14 12:28:52;;;;;;;11.13;6.90;;;20.80;94.40;;;;;;5088898;28;20012;-76
2022/03/14 12:31:19;;;;;;;7.85;6.20;;;21.20;92.30;;;;;;5097991;27;20039;-74
2022/03/14 12:33:48;;;;;;;7.55;5.40;;;21.60;90.60;;;;;;5107741;27;20042;-74
2022/03/14 12:36:23;;;;;;;12.05;5.60;;;21.80;86.70;;;;;;5107396;27;20049;-74
2022/03/14 12:39:05;;;;;;;8.60;5.68;;;21.80;84.90;;;;;;5102722;27;20028;-74
2022/03/14 12:41:32;;;;;;;8.70;5.38;;;21.20;84.20;;;;;;5079875;28;20027;-75
2022/03/14 12:43:59;;;;;;;11.48;6.28;;;21.20;84.00;;;;;;5078952;27;20039;-74
2022/03/14 12:46:27;;;;;;;8.48;5.35;;;21.40;82.80;;;;;;5101235;27;20031;-74
2022/03/14 12:48:55;;;;;;;7.03;5.05;;;21.70;81.50;;;;;;5098520;27;20941;-74